sensor_id;sensor_type;location;lat;lon;timestamp;P1;durP1;ratioP1;P2;durP2;ratioP2
14994;SDS011;7593;49.006;8.372;2023-03-03T00:00:29;57.00;;;42.40;;
14994;SDS011;7593;49.006;8.372;2023-03-03T00:02:58;56.13;;;41.00;;
14994;SDS011;7593;49.006;8.372;2023-03-03T00:05:30;55.53;;;41.80;;
14994;SDS011;7593;49.006;8.372;2023-03-03T00:07:57;56.47;;;41.93;;
14994;SDS011;7593;49.006;8.372;2023-03-03T00:10:24;57.50;;;42.33;;
14994;SDS011;7593;49.006;8.372;2023-03-03T00:12:51;59.10;;;41.97;;
14994;SDS011;7593;49.006;8.372;2023-03-03T00:15:19;54.23;;;41.47;;
14994;SDS011;7593;49.006;8.372;2023-03-03T00:17:48;54.40;;;39.80;;
14994;SDS011;7593;49.006;8.372;2023-03-03T00:20:28;55.00;;;39.63;;
14994;SDS011;7593;49.006;8.372;2023-03-03T00:22:57;54.87;;;39.80;;
14994;SDS011;7593;49.006;8.372;2023-03-03T00:25:38;47.83;;;35.27;;
14994;SDS011;7593;49.006;8.372;2023-03-03T00:28:15;50.60;;;35.90;;
14994;SDS011;7593;49.006;8.372;2023-03-03T00:30:49;51.73;;;36.10;;
14994;SDS011;7593;49.006;8.372;2023-03-03T00:33:27;46.50;;;33.33;;
14994;SDS011;7593;49.006;8.372;2023-03-03T00:35:59;43.27;;;31.80;;
14994;SDS011;7593;49.006;8.372;2023-03-03T00:38:47;49.53;;;34.33;;
14994;SDS011;7593;49.006;8.372;2023-03-03T00:41:15;49.17;;;35.53;;
14994;SDS011;7593;49.006;8.372;2023-03-03T00:43:47;49.00;;;34.20;;
14994;SDS011;7593;49.006;8.372;2023-03-03T00:46:15;48.33;;;34.07;;
14994;SDS011;7593;49.006;8.372;2023-03-03T00:48:44;47.23;;;33.57;;
14994;SDS011;7593;49.006;8.372;2023-03-03T00:51:18;49.87;;;34.67;;
14994;SDS011;7593;49.006;8.372;2023-03-03T00:53:51;47.80;;;34.77;;
14994;SDS011;7593;49.006;8.372;2023-03-03T00:56:19;47.17;;;33.63;;
14994;SDS011;7593;49.006;8.372;2023-03-03T00:58:46;48.67;;;34.40;;
14994;SDS011;7593;49.006;8.372;2023-03-03T01:01:13;51.97;;;35.20;;
14994;SDS011;7593;49.006;8.372;2023-03-03T01:03:40;51.50;;;35.93;;
14994;SDS011;7593;49.006;8.372;2023-03-03T01:06:06;51.67;;;35.73;;
14994;SDS011;7593;49.006;8.372;2023-03-03T01:08:35;52.60;;;36.13;;
14994;SDS011;7593;49.006;8.372;2023-03-03T01:11:03;49.00;;;34.93;;
14994;SDS011;7593;49.006;8.372;2023-03-03T01:13:34;49.87;;;35.23;;
14994;SDS011;7593;49.006;8.372;2023-03-03T01:16:02;49.47;;;35.80;;
14994;SDS011;7593;49.006;8.372;2023-03-03T01:18:30;50.53;;;35.63;;
14994;SDS011;7593;49.006;8.372;2023-03-03T01:20:58;51.33;;;36.80;;
14994;SDS011;7593;49.006;8.372;2023-03-03T01:23:26;50.73;;;37.17;;
14994;SDS011;7593;49.006;8.372;2023-03-03T01:25:54;54.40;;;36.87;;
14994;SDS011;7593;49.006;8.372;2023-03-03T01:28:21;55.30;;;39.70;;
14994;SDS011;7593;49.006;8.372;2023-03-03T01:30:47;50.73;;;35.77;;
14994;SDS011;7593;49.006;8.372;2023-03-03T01:33:14;54.00;;;37.00;;
14994;SDS011;7593;49.006;8.372;2023-03-03T01:35:42;55.70;;;38.67;;
14994;SDS011;7593;49.006;8.372;2023-03-03T01:38:09;55.10;;;36.43;;
14994;SDS011;7593;49.006;8.372;2023-03-03T01:40:36;49.40;;;35.90;;
14994;SDS011;7593;49.006;8.372;2023-03-03T01:43:05;53.37;;;35.67;;
14994;SDS011;7593;49.006;8.372;2023-03-03T01:45:36;49.73;;;33.30;;
14994;SDS011;7593;49.006;8.372;2023-03-03T01:48:12;51.10;;;34.47;;
14994;SDS011;7593;49.006;8.372;2023-03-03T01:50:44;42.80;;;30.17;;
14994;SDS011;7593;49.006;8.372;2023-03-03T01:53:16;50.70;;;34.57;;
14994;SDS011;7593;49.006;8.372;2023-03-03T01:55:45;50.13;;;34.73;;
14994;SDS011;7593;49.006;8.372;2023-03-03T01:58:15;44.30;;;32.90;;
14994;SDS011;7593;49.006;8.372;2023-03-03T02:00:49;42.80;;;28.67;;
14994;SDS011;7593;49.006;8.372;2023-03-03T02:03:18;44.10;;;29.73;;
14994;SDS011;7593;49.006;8.372;2023-03-03T02:05:47;40.57;;;28.57;;
14994;SDS011;7593;49.006;8.372;2023-03-03T02:08:16;41.13;;;27.63;;
14994;SDS011;7593;49.006;8.372;2023-03-03T02:10:46;40.37;;;27.63;;
14994;SDS011;7593;49.006;8.372;2023-03-03T02:13:15;40.40;;;28.93;;
14994;SDS011;7593;49.006;8.372;2023-03-03T02:15:41;39.53;;;27.10;;
14994;SDS011;7593;49.006;8.372;2023-03-03T02:18:09;35.90;;;26.23;;
14994;SDS011;7593;49.006;8.372;2023-03-03T02:20:42;34.17;;;25.17;;
14994;SDS011;7593;49.006;8.372;2023-03-03T02:23:20;34.83;;;25.17;;
14994;SDS011;7593;49.006;8.372;2023-03-03T02:25:59;37.67;;;24.90;;
14994;SDS011;7593;49.006;8.372;2023-03-03T02:28:32;34.73;;;25.33;;
14994;SDS011;7593;49.006;8.372;2023-03-03T02:31:01;37.07;;;25.77;;
14994;SDS011;7593;49.006;8.372;2023-03-03T02:33:30;35.47;;;25.17;;
14994;SDS011;7593;49.006;8.372;2023-03-03T02:35:57;35.30;;;24.93;;
14994;SDS011;7593;49.006;8.372;2023-03-03T02:38:24;33.70;;;23.47;;
14994;SDS011;7593;49.006;8.372;2023-03-03T02:41:01;34.07;;;24.53;;
14994;SDS011;7593;49.006;8.372;2023-03-03T02:43:35;33.37;;;23.63;;
14994;SDS011;7593;49.006;8.372;2023-03-03T02:46:06;32.20;;;23.17;;
14994;SDS011;7593;49.006;8.372;2023-03-03T02:48:33;37.50;;;24.07;;
14994;SDS011;7593;49.006;8.372;2023-03-03T02:51:00;32.73;;;23.63;;
14994;SDS011;7593;49.006;8.372;2023-03-03T02:53:26;40.73;;;25.93;;
14994;SDS011;7593;49.006;8.372;2023-03-03T02:55:53;40.27;;;26.33;;
14994;SDS011;7593;49.006;8.372;2023-03-03T02:58:21;36.13;;;25.00;;
14994;SDS011;7593;49.006;8.372;2023-03-03T03:00:48;38.23;;;25.83;;
14994;SDS011;7593;49.006;8.372;2023-03-03T03:03:15;37.13;;;25.10;;
14994;SDS011;7593;49.006;8.372;2023-03-03T03:05:42;35.93;;;24.07;;
14994;SDS011;7593;49.006;8.372;2023-03-03T03:08:08;36.13;;;24.27;;
14994;SDS011;7593;49.006;8.372;2023-03-03T03:10:35;35.10;;;23.63;;
14994;SDS011;7593;49.006;8.372;2023-03-03T03:13:03;34.13;;;24.70;;
14994;SDS011;7593;49.006;8.372;2023-03-03T03:15:31;33.77;;;24.90;;
14994;SDS011;7593;49.006;8.372;2023-03-03T03:17:58;37.83;;;24.97;;
14994;SDS011;7593;49.006;8.372;2023-03-03T03:20:25;37.67;;;24.43;;
14994;SDS011;7593;49.006;8.372;2023-03-03T03:22:52;35.00;;;23.50;;
14994;SDS011;7593;49.006;8.372;2023-03-03T03:25:19;29.87;;;22.13;;
14994;SDS011;7593;49.006;8.372;2023-03-03T03:27:46;30.87;;;21.10;;
14994;SDS011;7593;49.006;8.372;2023-03-03T03:30:13;33.27;;;22.60;;
14994;SDS011;7593;49.006;8.372;2023-03-03T03:32:41;34.27;;;24.00;;
14994;SDS011;7593;49.006;8.372;2023-03-03T03:35:08;30.20;;;20.97;;
14994;SDS011;7593;49.006;8.372;2023-03-03T03:37:35;26.87;;;19.70;;
14994;SDS011;7593;49.006;8.372;2023-03-03T03:40:02;25.33;;;19.37;;
14994;SDS011;7593;49.006;8.372;2023-03-03T03:42:29;27.27;;;19.97;;
14994;SDS011;7593;49.006;8.372;2023-03-03T03:44:56;27.27;;;18.80;;
14994;SDS011;7593;49.006;8.372;2023-03-03T03:47:23;28.10;;;19.40;;
14994;SDS011;7593;49.006;8.372;2023-03-03T03:49:51;23.03;;;17.70;;
14994;SDS011;7593;49.006;8.372;2023-03-03T03:52:18;24.93;;;17.80;;
14994;SDS011;7593;49.006;8.372;2023-03-03T03:54:44;26.13;;;17.73;;
14994;SDS011;7593;49.006;8.372;2023-03-03T03:57:11;26.80;;;19.03;;
14994;SDS011;7593;49.006;8.372;2023-03-03T03:59:38;27.27;;;18.17;;
14994;SDS011;7593;49.006;8.372;2023-03-03T04:02:05;25.33;;;17.47;;
14994;SDS011;7593;49.006;8.372;2023-03-03T04:04:32;28.83;;;19.17;;
14994;SDS011;7593;49.006;8.372;2023-03-03T04:07:00;42.53;;;24.57;;
14994;SDS011;7593;49.006;8.372;2023-03-03T04:09:27;37.77;;;23.93;;
14994;SDS011;7593;49.006;8.372;2023-03-03T04:11:53;36.07;;;22.47;;
14994;SDS011;7593;49.006;8.372;2023-03-03T04:14:20;30.10;;;21.63;;
14994;SDS011;7593;49.006;8.372;2023-03-03T04:16:47;35.20;;;21.80;;
14994;SDS011;7593;49.006;8.372;2023-03-03T04:19:14;34.60;;;22.93;;
14994;SDS011;7593;49.006;8.372;2023-03-03T04:21:40;31.20;;;22.27;;
14994;SDS011;7593;49.006;8.372;2023-03-03T04:24:08;34.13;;;23.20;;
14994;SDS011;7593;49.006;8.372;2023-03-03T04:26:36;30.60;;;22.93;;
14994;SDS011;7593;49.006;8.372;2023-03-03T04:29:02;33.03;;;22.73;;
14994;SDS011;7593;49.006;8.372;2023-03-03T04:31:29;33.03;;;22.83;;
14994;SDS011;7593;49.006;8.372;2023-03-03T04:33:56;32.63;;;23.17;;
14994;SDS011;7593;49.006;8.372;2023-03-03T04:36:23;35.43;;;23.43;;
14994;SDS011;7593;49.006;8.372;2023-03-03T04:38:50;32.60;;;22.90;;
14994;SDS011;7593;49.006;8.372;2023-03-03T04:41:18;34.23;;;23.30;;
14994;SDS011;7593;49.006;8.372;2023-03-03T04:43:45;34.10;;;23.63;;
14994;SDS011;7593;49.006;8.372;2023-03-03T04:46:12;34.57;;;23.93;;
14994;SDS011;7593;49.006;8.372;2023-03-03T04:48:39;34.33;;;23.50;;
14994;SDS011;7593;49.006;8.372;2023-03-03T04:51:05;36.70;;;25.03;;
14994;SDS011;7593;49.006;8.372;2023-03-03T04:53:32;34.93;;;24.53;;
14994;SDS011;7593;49.006;8.372;2023-03-03T04:56:00;38.63;;;24.67;;
14994;SDS011;7593;49.006;8.372;2023-03-03T04:58:30;37.53;;;25.30;;
14994;SDS011;7593;49.006;8.372;2023-03-03T05:00:57;38.30;;;24.77;;
14994;SDS011;7593;49.006;8.372;2023-03-03T05:03:24;35.83;;;24.50;;
14994;SDS011;7593;49.006;8.372;2023-03-03T05:05:51;38.40;;;25.07;;
14994;SDS011;7593;49.006;8.372;2023-03-03T05:08:18;40.30;;;25.07;;
14994;SDS011;7593;49.006;8.372;2023-03-03T05:10:45;39.70;;;25.23;;
14994;SDS011;7593;49.006;8.372;2023-03-03T05:13:11;35.03;;;24.57;;
14994;SDS011;7593;49.006;8.372;2023-03-03T05:15:40;34.77;;;24.23;;
14994;SDS011;7593;49.006;8.372;2023-03-03T05:18:07;36.10;;;25.13;;
14994;SDS011;7593;49.006;8.372;2023-03-03T05:20:35;39.53;;;24.63;;
14994;SDS011;7593;49.006;8.372;2023-03-03T05:23:04;38.93;;;24.70;;
14994;SDS011;7593;49.006;8.372;2023-03-03T05:25:31;36.63;;;25.43;;
14994;SDS011;7593;49.006;8.372;2023-03-03T05:27:58;39.87;;;25.03;;
14994;SDS011;7593;49.006;8.372;2023-03-03T05:30:25;37.90;;;24.57;;
14994;SDS011;7593;49.006;8.372;2023-03-03T05:32:53;39.47;;;25.80;;
14994;SDS011;7593;49.006;8.372;2023-03-03T05:35:19;37.40;;;25.67;;
14994;SDS011;7593;49.006;8.372;2023-03-03T05:37:47;36.33;;;25.00;;
14994;SDS011;7593;49.006;8.372;2023-03-03T05:40:14;39.60;;;26.77;;
14994;SDS011;7593;49.006;8.372;2023-03-03T05:42:41;40.97;;;26.77;;
14994;SDS011;7593;49.006;8.372;2023-03-03T05:45:08;37.20;;;25.90;;
14994;SDS011;7593;49.006;8.372;2023-03-03T05:47:36;39.73;;;26.40;;
14994;SDS011;7593;49.006;8.372;2023-03-03T05:50:05;38.17;;;25.70;;
14994;SDS011;7593;49.006;8.372;2023-03-03T05:52:32;43.43;;;27.70;;
14994;SDS011;7593;49.006;8.372;2023-03-03T05:54:58;38.10;;;27.30;;
14994;SDS011;7593;49.006;8.372;2023-03-03T05:57:25;39.83;;;26.60;;
14994;SDS011;7593;49.006;8.372;2023-03-03T05:59:52;40.60;;;27.47;;
14994;SDS011;7593;49.006;8.372;2023-03-03T06:02:18;41.10;;;26.90;;
14994;SDS011;7593;49.006;8.372;2023-03-03T06:04:45;36.10;;;24.83;;
14994;SDS011;7593;49.006;8.372;2023-03-03T06:07:13;34.50;;;24.03;;
14994;SDS011;7593;49.006;8.372;2023-03-03T06:09:40;32.93;;;23.63;;
14994;SDS011;7593;49.006;8.372;2023-03-03T06:12:07;37.27;;;25.20;;
14994;SDS011;7593;49.006;8.372;2023-03-03T06:14:34;33.37;;;23.53;;
14994;SDS011;7593;49.006;8.372;2023-03-03T06:17:00;36.67;;;21.50;;
14994;SDS011;7593;49.006;8.372;2023-03-03T06:19:27;29.90;;;21.60;;
14994;SDS011;7593;49.006;8.372;2023-03-03T06:21:54;32.17;;;21.57;;
14994;SDS011;7593;49.006;8.372;2023-03-03T06:24:22;33.33;;;21.60;;
14994;SDS011;7593;49.006;8.372;2023-03-03T06:26:49;27.63;;;20.10;;
14994;SDS011;7593;49.006;8.372;2023-03-03T06:29:16;28.93;;;21.70;;
14994;SDS011;7593;49.006;8.372;2023-03-03T06:31:43;31.60;;;20.57;;
14994;SDS011;7593;49.006;8.372;2023-03-03T06:34:10;30.70;;;20.63;;
14994;SDS011;7593;49.006;8.372;2023-03-03T06:36:39;29.50;;;19.63;;
14994;SDS011;7593;49.006;8.372;2023-03-03T06:39:06;27.20;;;19.83;;
14994;SDS011;7593;49.006;8.372;2023-03-03T06:41:34;26.00;;;19.30;;
14994;SDS011;7593;49.006;8.372;2023-03-03T06:44:00;26.47;;;17.67;;
14994;SDS011;7593;49.006;8.372;2023-03-03T06:46:27;24.10;;;17.27;;
14994;SDS011;7593;49.006;8.372;2023-03-03T06:48:54;27.10;;;17.90;;
14994;SDS011;7593;49.006;8.372;2023-03-03T06:51:22;26.40;;;17.77;;
14994;SDS011;7593;49.006;8.372;2023-03-03T06:53:51;24.50;;;17.97;;
14994;SDS011;7593;49.006;8.372;2023-03-03T06:56:20;25.57;;;17.40;;
14994;SDS011;7593;49.006;8.372;2023-03-03T06:58:48;26.50;;;18.10;;
14994;SDS011;7593;49.006;8.372;2023-03-03T07:01:18;28.67;;;19.33;;
14994;SDS011;7593;49.006;8.372;2023-03-03T07:03:45;26.87;;;19.23;;
14994;SDS011;7593;49.006;8.372;2023-03-03T07:06:17;26.67;;;18.83;;
14994;SDS011;7593;49.006;8.372;2023-03-03T07:08:48;28.20;;;19.37;;
14994;SDS011;7593;49.006;8.372;2023-03-03T07:11:16;25.43;;;18.67;;
14994;SDS011;7593;49.006;8.372;2023-03-03T07:13:49;30.47;;;19.43;;
14994;SDS011;7593;49.006;8.372;2023-03-03T07:16:23;66.33;;;22.17;;
14994;SDS011;7593;49.006;8.372;2023-03-03T07:18:52;35.90;;;21.97;;
14994;SDS011;7593;49.006;8.372;2023-03-03T07:21:21;33.53;;;22.17;;
14994;SDS011;7593;49.006;8.372;2023-03-03T07:23:57;36.60;;;22.33;;
14994;SDS011;7593;49.006;8.372;2023-03-03T07:26:27;33.30;;;23.00;;
14994;SDS011;7593;49.006;8.372;2023-03-03T07:28:59;73.60;;;25.83;;
14994;SDS011;7593;49.006;8.372;2023-03-03T07:31:30;82.47;;;26.33;;
14994;SDS011;7593;49.006;8.372;2023-03-03T07:34:00;88.37;;;29.13;;
14994;SDS011;7593;49.006;8.372;2023-03-03T07:36:39;59.70;;;28.17;;
14994;SDS011;7593;49.006;8.372;2023-03-03T07:39:13;57.77;;;26.70;;
14994;SDS011;7593;49.006;8.372;2023-03-03T07:41:58;39.27;;;24.83;;
14994;SDS011;7593;49.006;8.372;2023-03-03T07:44:34;39.47;;;25.60;;
14994;SDS011;7593;49.006;8.372;2023-03-03T07:47:11;35.83;;;24.57;;
14994;SDS011;7593;49.006;8.372;2023-03-03T07:49:43;36.47;;;24.50;;
14994;SDS011;7593;49.006;8.372;2023-03-03T07:52:19;37.07;;;24.20;;
14994;SDS011;7593;49.006;8.372;2023-03-03T07:54:51;31.07;;;23.37;;
14994;SDS011;7593;49.006;8.372;2023-03-03T07:57:20;35.03;;;23.93;;
14994;SDS011;7593;49.006;8.372;2023-03-03T07:59:52;32.60;;;23.60;;
14994;SDS011;7593;49.006;8.372;2023-03-03T08:02:34;48.47;;;24.30;;
14994;SDS011;7593;49.006;8.372;2023-03-03T08:05:20;45.30;;;26.23;;
14994;SDS011;7593;49.006;8.372;2023-03-03T08:10:53;31.83;;;23.37;;
14994;SDS011;7593;49.006;8.372;2023-03-03T08:13:21;30.53;;;22.10;;
14994;SDS011;7593;49.006;8.372;2023-03-03T08:15:51;34.10;;;21.13;;
14994;SDS011;7593;49.006;8.372;2023-03-03T08:18:23;30.53;;;21.20;;
14994;SDS011;7593;49.006;8.372;2023-03-03T08:20:56;30.07;;;21.30;;
14994;SDS011;7593;49.006;8.372;2023-03-03T08:23:24;29.60;;;21.87;;
14994;SDS011;7593;49.006;8.372;2023-03-03T08:25:51;28.27;;;20.40;;
14994;SDS011;7593;49.006;8.372;2023-03-03T08:28:19;28.43;;;22.13;;
14994;SDS011;7593;49.006;8.372;2023-03-03T08:30:46;28.77;;;20.83;;
14994;SDS011;7593;49.006;8.372;2023-03-03T08:33:16;33.37;;;22.23;;
14994;SDS011;7593;49.006;8.372;2023-03-03T08:35:43;29.47;;;22.27;;
14994;SDS011;7593;49.006;8.372;2023-03-03T08:38:11;30.37;;;21.80;;
14994;SDS011;7593;49.006;8.372;2023-03-03T08:40:39;39.33;;;22.50;;
14994;SDS011;7593;49.006;8.372;2023-03-03T08:43:07;25.50;;;20.58;;
14994;SDS011;7593;49.006;8.372;2023-03-03T08:45:34;31.45;;;21.05;;
14994;SDS011;7593;49.006;8.372;2023-03-03T08:48:01;29.70;;;21.65;;
14994;SDS011;7593;49.006;8.372;2023-03-03T08:50:29;31.15;;;20.27;;
14994;SDS011;7593;49.006;8.372;2023-03-03T08:52:56;26.88;;;21.77;;
14994;SDS011;7593;49.006;8.372;2023-03-03T08:55:23;25.85;;;20.55;;
14994;SDS011;7593;49.006;8.372;2023-03-03T08:57:50;23.13;;;19.25;;
14994;SDS011;7593;49.006;8.372;2023-03-03T09:00:17;24.58;;;19.48;;
14994;SDS011;7593;49.006;8.372;2023-03-03T09:02:45;26.10;;;19.38;;
14994;SDS011;7593;49.006;8.372;2023-03-03T09:05:13;23.80;;;19.20;;
14994;SDS011;7593;49.006;8.372;2023-03-03T09:07:43;23.45;;;19.52;;
14994;SDS011;7593;49.006;8.372;2023-03-03T09:10:11;22.63;;;18.55;;
14994;SDS011;7593;49.006;8.372;2023-03-03T09:12:40;20.80;;;17.83;;
14994;SDS011;7593;49.006;8.372;2023-03-03T09:15:13;21.23;;;18.08;;
14994;SDS011;7593;49.006;8.372;2023-03-03T09:17:46;22.88;;;18.17;;
14994;SDS011;7593;49.006;8.372;2023-03-03T09:20:20;24.08;;;17.92;;
14994;SDS011;7593;49.006;8.372;2023-03-03T09:22:53;22.48;;;19.13;;
14994;SDS011;7593;49.006;8.372;2023-03-03T09:25:21;24.05;;;19.88;;
14994;SDS011;7593;49.006;8.372;2023-03-03T09:27:52;23.52;;;19.33;;
14994;SDS011;7593;49.006;8.372;2023-03-03T09:30:33;23.15;;;19.73;;
14994;SDS011;7593;49.006;8.372;2023-03-03T09:33:18;24.38;;;20.15;;
14994;SDS011;7593;49.006;8.372;2023-03-03T09:35:49;22.48;;;19.23;;
14994;SDS011;7593;49.006;8.372;2023-03-03T09:38:24;23.10;;;18.92;;
14994;SDS011;7593;49.006;8.372;2023-03-03T09:43:57;22.17;;;19.23;;
14994;SDS011;7593;49.006;8.372;2023-03-03T09:46:36;22.90;;;19.00;;
14994;SDS011;7593;49.006;8.372;2023-03-03T09:49:13;22.10;;;19.15;;
14994;SDS011;7593;49.006;8.372;2023-03-03T09:51:55;22.42;;;19.00;;
14994;SDS011;7593;49.006;8.372;2023-03-03T09:54:38;20.75;;;18.45;;
14994;SDS011;7593;49.006;8.372;2023-03-03T09:57:13;22.75;;;19.83;;
14994;SDS011;7593;49.006;8.372;2023-03-03T09:59:46;22.23;;;19.80;;
14994;SDS011;7593;49.006;8.372;2023-03-03T10:02:30;23.27;;;19.58;;
14994;SDS011;7593;49.006;8.372;2023-03-03T10:07:58;25.90;;;20.08;;
14994;SDS011;7593;49.006;8.372;2023-03-03T10:13:25;24.15;;;19.95;;
14994;SDS011;7593;49.006;8.372;2023-03-03T10:16:09;24.17;;;19.38;;
14994;SDS011;7593;49.006;8.372;2023-03-03T10:18:47;25.55;;;20.10;;
14994;SDS011;7593;49.006;8.372;2023-03-03T10:21:22;23.58;;;19.85;;
14994;SDS011;7593;49.006;8.372;2023-03-03T10:23:53;24.70;;;20.05;;
14994;SDS011;7593;49.006;8.372;2023-03-03T10:26:37;23.50;;;20.00;;
14994;SDS011;7593;49.006;8.372;2023-03-03T10:29:16;24.52;;;20.40;;
14994;SDS011;7593;49.006;8.372;2023-03-03T10:31:54;25.90;;;20.38;;
14994;SDS011;7593;49.006;8.372;2023-03-03T10:34:37;24.35;;;20.08;;
14994;SDS011;7593;49.006;8.372;2023-03-03T10:37:20;26.27;;;20.10;;
14994;SDS011;7593;49.006;8.372;2023-03-03T10:40:02;23.52;;;19.95;;
14994;SDS011;7593;49.006;8.372;2023-03-03T10:42:47;23.55;;;19.25;;
14994;SDS011;7593;49.006;8.372;2023-03-03T10:48:40;22.77;;;17.63;;
14994;SDS011;7593;49.006;8.372;2023-03-03T10:51:18;22.60;;;19.02;;
14994;SDS011;7593;49.006;8.372;2023-03-03T10:53:53;25.85;;;20.27;;
14994;SDS011;7593;49.006;8.372;2023-03-03T10:56:33;22.80;;;19.92;;
14994;SDS011;7593;49.006;8.372;2023-03-03T10:59:14;20.60;;;18.40;;
14994;SDS011;7593;49.006;8.372;2023-03-03T11:01:56;21.42;;;19.02;;
14994;SDS011;7593;49.006;8.372;2023-03-03T11:04:33;22.73;;;19.35;;
14994;SDS011;7593;49.006;8.372;2023-03-03T11:07:08;22.70;;;19.08;;
14994;SDS011;7593;49.006;8.372;2023-03-03T11:09:45;23.10;;;19.15;;
14994;SDS011;7593;49.006;8.372;2023-03-03T11:12:31;22.55;;;19.73;;
14994;SDS011;7593;49.006;8.372;2023-03-03T11:15:22;23.58;;;19.05;;
14994;SDS011;7593;49.006;8.372;2023-03-03T11:18:11;22.23;;;17.95;;
14994;SDS011;7593;49.006;8.372;2023-03-03T11:20:49;22.88;;;19.52;;
14994;SDS011;7593;49.006;8.372;2023-03-03T11:23:36;23.15;;;19.80;;
14994;SDS011;7593;49.006;8.372;2023-03-03T11:26:26;23.00;;;19.42;;
14994;SDS011;7593;49.006;8.372;2023-03-03T11:29:09;22.17;;;19.48;;
14994;SDS011;7593;49.006;8.372;2023-03-03T11:31:56;22.45;;;19.70;;
14994;SDS011;7593;49.006;8.372;2023-03-03T11:34:41;23.55;;;19.40;;
14994;SDS011;7593;49.006;8.372;2023-03-03T11:37:16;23.38;;;19.35;;
14994;SDS011;7593;49.006;8.372;2023-03-03T11:39:47;23.30;;;19.88;;
14994;SDS011;7593;49.006;8.372;2023-03-03T11:42:19;24.23;;;19.90;;
14994;SDS011;7593;49.006;8.372;2023-03-03T11:44:51;21.80;;;19.10;;
14994;SDS011;7593;49.006;8.372;2023-03-03T11:47:24;22.35;;;19.67;;
14994;SDS011;7593;49.006;8.372;2023-03-03T11:49:55;25.17;;;19.98;;
14994;SDS011;7593;49.006;8.372;2023-03-03T11:52:28;22.08;;;18.98;;
14994;SDS011;7593;49.006;8.372;2023-03-03T11:55:01;21.10;;;18.75;;
14994;SDS011;7593;49.006;8.372;2023-03-03T11:57:34;21.10;;;18.90;;
14994;SDS011;7593;49.006;8.372;2023-03-03T12:00:15;23.35;;;19.98;;
14994;SDS011;7593;49.006;8.372;2023-03-03T12:02:59;27.90;;;19.98;;
14994;SDS011;7593;49.006;8.372;2023-03-03T12:05:52;23.42;;;20.25;;
14994;SDS011;7593;49.006;8.372;2023-03-03T12:11:11;22.10;;;19.77;;
14994;SDS011;7593;49.006;8.372;2023-03-03T12:13:49;22.70;;;20.17;;
14994;SDS011;7593;49.006;8.372;2023-03-03T12:16:23;21.70;;;19.48;;
14994;SDS011;7593;49.006;8.372;2023-03-03T12:19:07;21.52;;;19.23;;
14994;SDS011;7593;49.006;8.372;2023-03-03T12:24:37;22.38;;;19.95;;
14994;SDS011;7593;49.006;8.372;2023-03-03T12:27:18;23.25;;;20.85;;
14994;SDS011;7593;49.006;8.372;2023-03-03T12:29:54;23.50;;;20.67;;
14994;SDS011;7593;49.006;8.372;2023-03-03T12:32:32;30.38;;;20.40;;
14994;SDS011;7593;49.006;8.372;2023-03-03T12:35:15;23.88;;;19.88;;
14994;SDS011;7593;49.006;8.372;2023-03-03T12:37:51;22.15;;;19.80;;
14994;SDS011;7593;49.006;8.372;2023-03-03T12:40:23;22.88;;;20.42;;
14994;SDS011;7593;49.006;8.372;2023-03-03T12:42:55;26.40;;;20.42;;
14994;SDS011;7593;49.006;8.372;2023-03-03T12:45:33;25.45;;;20.88;;
14994;SDS011;7593;49.006;8.372;2023-03-03T12:48:11;23.23;;;20.48;;
14994;SDS011;7593;49.006;8.372;2023-03-03T12:50:45;22.10;;;19.77;;
14994;SDS011;7593;49.006;8.372;2023-03-03T12:53:23;23.10;;;20.60;;
14994;SDS011;7593;49.006;8.372;2023-03-03T12:55:59;22.27;;;19.98;;
14994;SDS011;7593;49.006;8.372;2023-03-03T12:58:34;23.35;;;20.73;;
14994;SDS011;7593;49.006;8.372;2023-03-03T13:01:09;22.88;;;20.33;;
14994;SDS011;7593;49.006;8.372;2023-03-03T13:03:48;27.25;;;21.23;;
14994;SDS011;7593;49.006;8.372;2023-03-03T13:06:27;22.73;;;20.35;;
14994;SDS011;7593;49.006;8.372;2023-03-03T13:08:59;23.20;;;20.70;;
14994;SDS011;7593;49.006;8.372;2023-03-03T13:11:41;23.13;;;20.63;;
14994;SDS011;7593;49.006;8.372;2023-03-03T13:14:21;23.48;;;20.58;;
14994;SDS011;7593;49.006;8.372;2023-03-03T13:16:58;22.85;;;19.83;;
14994;SDS011;7593;49.006;8.372;2023-03-03T13:19:30;24.52;;;21.33;;
14994;SDS011;7593;49.006;8.372;2023-03-03T13:22:06;24.75;;;20.48;;
14994;SDS011;7593;49.006;8.372;2023-03-03T13:24:39;26.23;;;20.63;;
14994;SDS011;7593;49.006;8.372;2023-03-03T13:27:15;24.20;;;21.65;;
14994;SDS011;7593;49.006;8.372;2023-03-03T13:29:48;23.65;;;21.35;;
14994;SDS011;7593;49.006;8.372;2023-03-03T13:32:22;25.45;;;22.48;;
14994;SDS011;7593;49.006;8.372;2023-03-03T13:34:53;25.60;;;22.85;;
14994;SDS011;7593;49.006;8.372;2023-03-03T13:37:28;23.92;;;21.30;;
14994;SDS011;7593;49.006;8.372;2023-03-03T13:39:59;25.27;;;21.92;;
14994;SDS011;7593;49.006;8.372;2023-03-03T13:42:35;23.92;;;21.33;;
14994;SDS011;7593;49.006;8.372;2023-03-03T13:45:06;27.52;;;22.40;;
14994;SDS011;7593;49.006;8.372;2023-03-03T13:47:42;26.55;;;23.23;;
14994;SDS011;7593;49.006;8.372;2023-03-03T13:50:18;27.88;;;23.20;;
14994;SDS011;7593;49.006;8.372;2023-03-03T13:52:53;25.13;;;22.50;;
14994;SDS011;7593;49.006;8.372;2023-03-03T13:55:32;29.58;;;25.35;;
14994;SDS011;7593;49.006;8.372;2023-03-03T13:58:05;26.52;;;23.08;;
14994;SDS011;7593;49.006;8.372;2023-03-03T14:00:46;27.40;;;22.73;;
14994;SDS011;7593;49.006;8.372;2023-03-03T14:03:25;26.10;;;22.48;;
14994;SDS011;7593;49.006;8.372;2023-03-03T14:06:04;25.38;;;22.73;;
14994;SDS011;7593;49.006;8.372;2023-03-03T14:08:43;25.55;;;22.50;;
14994;SDS011;7593;49.006;8.372;2023-03-03T14:11:21;26.63;;;23.00;;
14994;SDS011;7593;49.006;8.372;2023-03-03T14:13:53;28.38;;;23.25;;
14994;SDS011;7593;49.006;8.372;2023-03-03T14:16:33;29.02;;;22.35;;
14994;SDS011;7593;49.006;8.372;2023-03-03T14:19:08;24.23;;;21.75;;
14994;SDS011;7593;49.006;8.372;2023-03-03T14:21:42;27.65;;;22.55;;
14994;SDS011;7593;49.006;8.372;2023-03-03T14:24:17;25.30;;;22.35;;
14994;SDS011;7593;49.006;8.372;2023-03-03T14:26:46;26.13;;;21.20;;
14994;SDS011;7593;49.006;8.372;2023-03-03T14:29:18;25.92;;;23.13;;
14994;SDS011;7593;49.006;8.372;2023-03-03T14:31:46;25.25;;;22.13;;
14994;SDS011;7593;49.006;8.372;2023-03-03T14:34:24;26.83;;;22.25;;
14994;SDS011;7593;49.006;8.372;2023-03-03T14:36:59;24.73;;;22.08;;
14994;SDS011;7593;49.006;8.372;2023-03-03T14:39:50;27.83;;;22.90;;
14994;SDS011;7593;49.006;8.372;2023-03-03T14:42:31;26.38;;;22.38;;
14994;SDS011;7593;49.006;8.372;2023-03-03T14:45:01;25.38;;;22.33;;
14994;SDS011;7593;49.006;8.372;2023-03-03T14:47:42;25.55;;;22.85;;
14994;SDS011;7593;49.006;8.372;2023-03-03T14:50:27;26.48;;;22.02;;
14994;SDS011;7593;49.006;8.372;2023-03-03T14:53:10;28.33;;;22.60;;
14994;SDS011;7593;49.006;8.372;2023-03-03T14:55:42;26.98;;;22.65;;
14994;SDS011;7593;49.006;8.372;2023-03-03T14:58:25;26.20;;;21.80;;
14994;SDS011;7593;49.006;8.372;2023-03-03T15:03:51;26.98;;;21.55;;
14994;SDS011;7593;49.006;8.372;2023-03-03T15:06:28;27.17;;;21.55;;
14994;SDS011;7593;49.006;8.372;2023-03-03T15:09:20;25.70;;;22.38;;
14994;SDS011;7593;49.006;8.372;2023-03-03T15:11:55;28.75;;;22.67;;
14994;SDS011;7593;49.006;8.372;2023-03-03T15:14:27;27.23;;;21.83;;
14994;SDS011;7593;49.006;8.372;2023-03-03T15:16:56;24.77;;;21.85;;
14994;SDS011;7593;49.006;8.372;2023-03-03T15:19:50;24.27;;;21.67;;
14994;SDS011;7593;49.006;8.372;2023-03-03T15:22:35;26.02;;;22.15;;
14994;SDS011;7593;49.006;8.372;2023-03-03T15:25:13;26.58;;;21.33;;